Time;durP1;ratioP1;P1;durP2;ratioP2;P2;SDS_P1;SDS_P2;PMS_P1;PMS_P2;Temp;Humidity;BMP_temperature;BMP_pressure;BME280_temperature;BME280_humidity;BME280_pressure;Samples;Min_cycle;Max_cycle;Signal;HPM_P1;HPM_P2
2024/02/24 00:01:16;;;;;;;1.73;1.35;;;;;;;11.27;45.79;93488.09;5051686;28;20402;-73
2024/02/24 00:03:41;;;;;;;2.90;1.10;;;;;;;10.87;45.90;93471.78;5051125;28;20112;-73
2024/02/24 00:06:07;;;;;;;1.65;1.10;;;;;;;10.75;46.12;93483.13;5051708;28;20726;-73
2024/02/24 00:08:32;;;;;;;2.28;0.93;;;;;;;11.12;45.83;93478.81;5051967;28;20113;-73
2024/02/24 00:10:58;;;;;;;1.33;1.23;;;;;;;10.52;46.34;93489.78;5051377;28;20033;-73
2024/02/24 00:13:23;;;;;;;1.00;0.90;;;;;;;10.63;45.34;93488.34;5051386;28;20533;-73
2024/02/24 00:15:48;;;;;;;2.00;0.90;;;;;;;10.62;45.94;93495.53;5051369;28;20037;-73
2024/02/24 00:18:14;;;;;;;2.10;1.02;;;;;;;11.15;45.18;93496.78;5051307;28;20085;-73
2024/02/24 00:20:39;;;;;;;1.33;1.10;;;;;;;11.26;45.03;93499.84;5051582;28;20102;-72
2024/02/24 00:23:04;;;;;;;3.38;0.90;;;;;;;11.03;45.60;93500.16;5050970;28;20037;-73
2024/02/24 00:25:30;;;;;;;1.15;1.05;;;;;;;10.91;45.04;93489.44;5049746;28;20502;-73
2024/02/24 00:27:55;;;;;;;1.15;1.05;;;;;;;11.18;45.08;93488.94;5051138;28;20059;-73
2024/02/24 00:30:21;;;;;;;1.35;1.00;;;;;;;11.20;45.12;93469.97;5050975;28;20043;-73
2024/02/24 00:32:46;;;;;;;1.30;0.90;;;;;;;11.16;44.74;93485.81;5051835;28;20021;-73
2024/02/24 00:35:12;;;;;;;3.72;1.42;;;;;;;10.75;45.69;93443.22;5050881;28;20111;-73
2024/02/24 00:37:37;;;;;;;3.00;1.00;;;;;;;10.59;46.42;93503.38;5051255;28;20115;-73
2024/02/24 00:40:03;;;;;;;1.98;1.17;;;;;;;10.50;47.12;93500.75;5050503;28;20465;-73
2024/02/24 00:42:28;;;;;;;1.88;1.20;;;;;;;10.31;46.84;93489.72;5050926;28;20051;-73
2024/02/24 00:44:54;;;;;;;1.15;1.00;;;;;;;10.72;46.80;93499.69;5050780;28;20020;-72
2024/02/24 00:47:19;;;;;;;2.28;1.17;;;;;;;11.00;46.27;93486.72;5051535;28;20466;-73
2024/02/24 00:49:44;;;;;;;3.67;1.25;;;;;;;11.20;44.97;93477.97;5050680;28;20048;-73
2024/02/24 00:52:10;;;;;;;1.50;1.30;;;;;;;11.58;44.75;93493.84;5050878;28;20069;-73
2024/02/24 00:54:35;;;;;;;1.55;1.00;;;;;;;11.48;44.42;93481.69;5050828;28;20029;-73
2024/02/24 00:57:00;;;;;;;7.55;1.10;;;;;;;10.71;46.46;93495.47;5050569;28;20037;-73
2024/02/24 00:59:26;;;;;;;1.23;1.00;;;;;;;10.85;45.71;93480.09;5051217;28;20029;-73
2024/02/24 01:01:52;;;;;;;1.05;0.95;;;;;;;10.36;46.92;93464.81;5050597;28;20060;-73
2024/02/24 01:04:17;;;;;;;0.82;0.80;;;;;;;10.86;46.26;93502.13;5050302;28;20048;-73
2024/02/24 01:06:43;;;;;;;1.42;1.02;;;;;;;10.95;45.75;93485.03;5050661;28;20036;-73
2024/02/24 01:09:08;;;;;;;0.88;0.88;;;;;;;10.76;45.66;93478.59;5050651;28;20546;-73
2024/02/24 01:11:33;;;;;;;2.53;1.13;;;;;;;10.97;45.61;93488.16;5051257;28;20033;-73
2024/02/24 01:13:59;;;;;;;1.85;1.30;;;;;;;10.92;45.64;93475.03;5050325;28;20041;-73
2024/02/24 01:16:24;;;;;;;1.55;1.25;;;;;;;11.16;45.53;93491.16;5052369;28;20057;-73
2024/02/24 01:18:50;;;;;;;1.55;1.05;;;;;;;10.58;46.17;93464.59;5054900;28;20265;-73
2024/02/24 01:21:15;;;;;;;1.17;0.90;;;;;;;10.61;47.03;93469.28;5054702;28;20060;-73
2024/02/24 01:23:41;;;;;;;2.53;1.10;;;;;;;10.90;46.50;93471.94;5055204;28;20044;-73
2024/02/24 01:26:06;;;;;;;1.40;1.30;;;;;;;10.60;46.52;93457.06;5054298;28;20029;-73
2024/02/24 01:28:31;;;;;;;2.00;0.98;;;;;;;10.15;47.64;93457.56;5054581;28;20498;-73
2024/02/24 01:30:57;;;;;;;1.58;1.20;;;;;;;10.65;46.79;93443.59;5054349;28;20025;-73
2024/02/24 01:33:22;;;;;;;2.00;1.30;;;;;;;10.48;47.42;93443.69;5054266;28;20033;-73
2024/02/24 01:35:47;;;;;;;1.00;0.90;;;;;;;10.42;46.78;93458.25;5055224;28;20044;-73
2024/02/24 01:38:13;;;;;;;2.00;1.48;;;;;;;10.04;47.24;93444.94;5054420;28;20033;-73
2024/02/24 01:40:38;;;;;;;1.67;1.30;;;;;;;10.22;47.38;93467.69;5053764;28;20053;-73
2024/02/24 01:43:24;;;;;;;1.70;1.15;;;;;;;10.10;47.38;93481.63;5053956;28;20048;-73
2024/02/24 01:45:51;;;;;;;1.83;1.08;;;;;;;9.56;48.13;93461.13;5054328;28;20094;-73
2024/02/24 01:48:17;;;;;;;4.57;1.27;;;;;;;9.84;47.57;93467.63;5054403;28;20036;-73
2024/02/24 01:50:45;;;;;;;1.77;1.30;;;;;;;10.38;46.35;93446.69;5054602;28;20516;-73
2024/02/24 01:53:11;;;;;;;2.15;1.10;;;;;;;10.55;45.35;93410.19;5054027;28;20498;-73
2024/02/24 01:55:37;;;;;;;1.23;1.00;;;;;;;10.65;45.89;93472.84;5054070;28;20045;-73
2024/02/24 01:58:04;;;;;;;2.50;1.00;;;;;;;10.86;44.87;93455.03;5053901;28;20064;-74
2024/02/24 02:00:30;;;;;;;2.95;1.10;;;;;;;10.45;44.78;93423.84;5054135;28;20041;-73
2024/02/24 02:02:57;;;;;;;2.53;0.85;;;;;;;10.68;44.50;93424.31;5053594;28;20093;-73
2024/02/24 02:05:22;;;;;;;0.82;0.82;;;;;;;10.82;44.30;93448.78;5054331;28;20017;-73
2024/02/24 02:07:47;;;;;;;1.67;0.98;;;;;;;10.05;45.91;93457.13;5054017;28;20458;-73
2024/02/24 02:10:13;;;;;;;4.22;1.40;;;;;;;9.70;46.48;93445.81;5053439;28;20087;-73
2024/02/24 02:12:38;;;;;;;1.20;0.90;;;;;;;10.19;46.11;93436.44;5053704;28;20037;-73
2024/02/24 02:15:04;;;;;;;0.90;0.80;;;;;;;10.38;44.71;93422.75;5053828;28;20624;-72
2024/02/24 02:17:30;;;;;;;1.23;0.90;;;;;;;10.46;45.02;93457.31;5054086;28;20048;-73
2024/02/24 02:20:03;;;;;;;1.40;1.00;;;;;;;10.19;45.60;93445.19;5053887;28;20518;-73
2024/02/24 02:22:30;;;;;;;1.42;1.00;;;;;;;10.14;45.74;93428.63;5053354;28;20045;-73
2024/02/24 02:24:55;;;;;;;4.82;1.10;;;;;;;10.18;45.84;93403.75;5053509;28;20456;-73
2024/02/24 02:27:21;;;;;;;1.10;1.00;;;;;;;10.35;45.42;93428.69;5053430;28;20044;-73
2024/02/24 02:29:46;;;;;;;6.88;1.23;;;;;;;10.24;45.43;93449.53;5053965;28;20079;-73
2024/02/24 02:32:11;;;;;;;5.38;1.20;;;;;;;10.37;45.48;93442.50;5053333;28;20406;-73
2024/02/24 02:34:37;;;;;;;7.82;2.13;;;;;;;9.99;45.72;93448.53;5053271;28;20658;-73
2024/02/24 02:37:02;;;;;;;1.38;1.27;;;;;;;10.07;45.93;93455.72;5053135;28;20032;-73
2024/02/24 02:39:28;;;;;;;1.30;1.10;;;;;;;9.51;47.03;93470.03;5053068;28;20052;-73
2024/02/24 02:41:53;;;;;;;1.90;1.40;;;;;;;9.66;46.55;93479.41;5053240;28;20020;-73
2024/02/24 02:44:18;;;;;;;2.53;1.80;;;;;;;9.65;46.62;93493.75;5053916;28;20568;-73
2024/02/24 02:46:48;;;;;;;1.67;1.58;;;;;;;9.14;48.24;93481.28;5053052;28;20061;-73
2024/02/24 02:49:17;;;;;;;5.32;3.17;;;;;;;9.22;48.00;93491.91;5052976;28;20037;-73
2024/02/24 02:51:43;;;;;;;1.80;1.00;;;;;;;9.55;47.33;93480.81;5052993;28;20029;-73
2024/02/24 02:54:08;;;;;;;5.55;3.33;;;;;;;9.42;47.41;93483.31;5053096;28;20020;-73
2024/02/24 02:56:33;;;;;;;1.58;1.20;;;;;;;8.92;48.12;93455.66;5053836;28;20538;-73
2024/02/24 02:58:59;;;;;;;3.53;2.35;;;;;;;8.98;48.43;93496.84;5034840;28;20044;-73
2024/02/24 03:01:24;;;;;;;3.55;2.47;;;;;;;8.61;49.33;93492.09;5052778;28;20048;-73
2024/02/24 03:03:50;;;;;;;4.68;3.40;;;;;;;8.37;49.79;93495.91;5053032;28;20391;-73
2024/02/24 03:06:17;;;;;;;5.43;4.45;;;;;;;8.64;49.62;93489.59;5053257;28;20059;-74
2024/02/24 03:08:42;;;;;;;5.40;3.67;;;;;;;8.90;48.48;93487.03;5053558;28;20121;-74
2024/02/24 03:11:17;;;;;;;5.07;4.20;;;;;;;9.04;48.04;93487.66;5052428;28;20025;-74
2024/02/24 03:13:42;;;;;;;6.40;5.13;;;;;;;9.21;47.66;93482.38;5052434;28;20025;-74
2024/02/24 03:16:08;;;;;;;7.65;5.43;;;;;;;9.01;48.28;93480.31;5052937;28;20040;-74
2024/02/24 03:18:33;;;;;;;6.13;4.03;;;;;;;8.65;49.13;93479.78;5052315;28;20574;-74
2024/02/24 03:20:58;;;;;;;7.45;4.47;;;;;;;8.86;48.84;93492.13;5052394;28;20035;-74
2024/02/24 03:23:24;;;;;;;8.45;4.65;;;;;;;8.79;48.63;93480.44;5053268;28;20544;-74
2024/02/24 03:25:49;;;;;;;7.35;4.75;;;;;;;9.21;48.07;93508.91;5052262;28;20152;-74
2024/02/24 03:28:16;;;;;;;7.57;4.50;;;;;;;8.23;50.06;93502.38;5052426;28;20037;-73
2024/02/24 03:30:42;;;;;;;7.60;2.45;;;;;;;8.38;48.97;93496.69;5052123;28;20099;-73
2024/02/24 03:33:08;;;;;;;3.85;2.70;;;;;;;7.97;50.14;93510.97;5052098;28;20096;-73
2024/02/24 03:35:33;;;;;;;6.07;4.43;;;;;;;8.02;50.85;93521.44;5052650;28;20209;-74
2024/02/24 03:37:59;;;;;;;8.00;4.65;;;;;;;7.98;50.92;93540.91;5051877;28;20323;-74
2024/02/24 03:40:24;;;;;;;8.77;4.93;;;;;;;8.08;50.67;93527.41;5051448;28;20052;-73
2024/02/24 03:42:49;;;;;;;7.15;5.65;;;;;;;7.77;51.54;93524.75;5052070;28;20056;-73
2024/02/24 03:45:15;;;;;;;7.93;5.60;;;;;;;7.72;51.55;93553.97;5051536;28;20113;-74
2024/02/24 03:47:40;;;;;;;8.75;5.93;;;;;;;7.31;52.87;93543.50;5051848;28;20549;-73
2024/02/24 03:50:07;;;;;;;9.35;6.68;;;;;;;7.43;52.74;93553.56;5051935;28;20523;-73
2024/02/24 03:52:33;;;;;;;10.07;5.70;;;;;;;7.14;53.38;93554.72;5051690;28;20078;-73
2024/02/24 03:54:58;;;;;;;7.90;5.45;;;;;;;7.25;52.99;93537.53;5051947;28;20045;-73
2024/02/24 03:57:23;;;;;;;7.15;4.40;;;;;;;7.66;51.77;93555.16;5051839;28;20024;-74
2024/02/24 03:59:49;;;;;;;6.35;4.63;;;;;;;7.92;51.28;93560.66;5052423;28;20594;-74
2024/02/24 04:02:14;;;;;;;8.00;4.03;;;;;;;7.95;50.69;93542.28;5051747;28;20033;-74
2024/02/24 04:04:39;;;;;;;5.78;3.00;;;;;;;7.55;51.17;93530.78;5051924;28;20033;-73
2024/02/24 04:07:05;;;;;;;1.30;1.20;;;;;;;7.75;48.96;93512.88;5051770;28;20775;-73
2024/02/24 04:09:30;;;;;;;5.30;3.30;;;;;;;7.96;49.64;93533.28;5033643;28;20052;-74
2024/02/24 04:11:56;;;;;;;10.15;4.43;;;;;;;8.27;49.38;93541.22;5051720;28;20104;-73
2024/02/24 04:14:21;;;;;;;2.60;2.20;;;;;;;8.24;48.01;93547.13;5051844;28;20056;-74
2024/02/24 04:16:46;;;;;;;6.05;4.57;;;;;;;8.03;50.80;93564.59;5051584;28;20044;-72
2024/02/24 04:19:12;;;;;;;4.28;2.63;;;;;;;7.81;49.90;93548.75;5051408;28;20670;-74
2024/02/24 04:21:38;;;;;;;3.20;2.20;;;;;;;8.16;48.67;93545.22;5051561;28;20115;-74
2024/02/24 04:24:05;;;;;;;6.90;4.57;;;;;;;8.19;49.68;93541.19;5051292;28;20627;-73
2024/02/24 04:26:30;;;;;;;8.40;5.65;;;;;;;8.06;50.77;93569.31;5051313;28;20044;-73
2024/02/24 04:28:56;;;;;;;10.70;5.60;;;;;;;8.16;50.65;93563.78;5051367;28;20467;-73
2024/02/24 04:31:21;;;;;;;9.48;5.65;;;;;;;8.12;50.10;93552.97;5051053;28;20033;-73
2024/02/24 04:33:46;;;;;;;9.25;4.90;;;;;;;8.67;49.54;93562.44;5051289;28;20052;-73
2024/02/24 04:36:12;;;;;;;7.63;5.05;;;;;;;8.69;48.56;93544.34;5051291;28;20513;-73
2024/02/24 04:38:37;;;;;;;8.73;4.75;;;;;;;8.19;49.68;93544.59;5051514;28;20033;-73
2024/02/24 04:41:03;;;;;;;6.88;4.72;;;;;;;8.57;49.75;93571.44;5051057;28;20052;-74
2024/02/24 04:43:28;;;;;;;6.28;4.32;;;;;;;8.88;48.55;93558.94;5051182;28;20037;-73
2024/02/24 04:45:53;;;;;;;6.80;4.88;;;;;;;9.16;48.18;93559.47;5051063;28;20040;-73
2024/02/24 04:48:19;;;;;;;6.57;4.75;;;;;;;8.58;49.62;93571.13;5051240;28;20067;-73
2024/02/24 04:50:44;;;;;;;7.30;4.65;;;;;;;9.02;48.57;93577.38;5050692;28;20096;-73
2024/02/24 04:53:09;;;;;;;7.60;5.47;;;;;;;9.28;47.85;93577.44;5051216;28;20033;-73
2024/02/24 04:55:35;;;;;;;6.03;4.45;;;;;;;9.37;47.50;93568.41;5050617;28;20067;-74
2024/02/24 04:58:00;;;;;;;5.18;3.70;;;;;;;9.65;47.11;93582.16;5050813;28;20106;-73
2024/02/24 05:00:26;;;;;;;6.32;4.35;;;;;;;9.80;46.48;93567.63;5051152;28;20178;-74
2024/02/24 05:02:51;;;;;;;5.68;3.95;;;;;;;9.86;45.89;93572.47;5051032;28;20021;-73
2024/02/24 05:05:17;;;;;;;5.43;3.83;;;;;;;9.88;46.29;93580.13;5051529;28;20025;-74
2024/02/24 05:07:42;;;;;;;5.40;3.60;;;;;;;9.88;45.71;93582.78;5051020;28;20567;-74
2024/02/24 05:10:08;;;;;;;9.60;2.97;;;;;;;9.77;45.59;93597.47;5050887;28;20043;-73
2024/02/24 05:12:35;;;;;;;4.70;2.85;;;;;;;9.37;46.25;93594.97;5050864;28;20040;-73
2024/02/24 05:15:00;;;;;;;3.88;2.90;;;;;;;9.30;46.60;93613.19;5050865;28;20056;-73
2024/02/24 05:17:26;;;;;;;6.72;3.63;;;;;;;9.61;46.34;93620.28;5051304;28;20126;-73
2024/02/24 05:19:51;;;;;;;5.68;3.50;;;;;;;9.23;46.89;93607.56;5051042;28;20041;-73
2024/02/24 05:22:16;;;;;;;4.25;2.85;;;;;;;9.44;46.55;93605.09;5050521;28;20116;-73
2024/02/24 05:24:42;;;;;;;5.10;4.00;;;;;;;8.62;46.85;93559.91;5051068;28;20498;-73
2024/02/24 05:27:07;;;;;;;8.65;4.90;;;;;;;8.68;48.29;93612.50;5050697;28;20107;-73
2024/02/24 05:29:34;;;;;;;6.22;4.28;;;;;;;9.15;47.34;93610.97;5050802;28;20074;-74
2024/02/24 05:31:59;;;;;;;11.23;5.20;;;;;;;9.41;46.85;93630.41;5050732;28;20494;-73
2024/02/24 05:34:25;;;;;;;5.65;3.95;;;;;;;9.29;47.24;93645.38;5050679;28;20040;-73
2024/02/24 05:36:50;;;;;;;8.82;4.55;;;;;;;8.76;47.46;93609.09;5050582;28;20084;-73
2024/02/24 05:39:15;;;;;;;5.95;3.70;;;;;;;9.46;46.94;93658.66;5050182;28;20106;-73
2024/02/24 05:41:41;;;;;;;7.50;3.70;;;;;;;9.08;47.30;93642.47;5051205;28;20048;-73
2024/02/24 05:44:06;;;;;;;6.32;4.53;;;;;;;9.13;47.67;93647.66;5050368;28;20032;-73
2024/02/24 05:46:31;;;;;;;5.07;4.20;;;;;;;9.27;47.22;93632.41;5050515;28;20057;-73
2024/02/24 05:48:57;;;;;;;8.07;4.13;;;;;;;9.57;46.55;93662.59;5050510;28;20498;-73
2024/02/24 05:51:24;;;;;;;5.50;3.83;;;;;;;9.10;47.71;93660.69;5050216;28;20037;-73
2024/02/24 05:53:49;;;;;;;7.63;3.72;;;;;;;9.50;46.77;93664.91;5050874;28;20131;-73
2024/02/24 05:56:15;;;;;;;4.93;3.05;;;;;;;9.61;45.50;93665.41;5050426;28;20125;-73
2024/02/24 05:58:40;;;;;;;7.70;3.13;;;;;;;9.61;46.42;93671.50;5050257;28;20059;-73
2024/02/24 06:01:05;;;;;;;7.93;4.32;;;;;;;8.55;48.12;93648.63;5050276;28;20120;-74
2024/02/24 06:03:31;;;;;;;6.97;4.60;;;;;;;8.90;47.73;93685.94;5053985;28;20037;-73
2024/02/24 06:05:56;;;;;;;14.02;5.22;;;;;;;8.90;48.26;93683.28;5054073;28;20541;-73
2024/02/24 06:08:22;;;;;;;8.00;5.45;;;;;;;9.35;47.48;93673.31;5054599;28;20028;-73
2024/02/24 06:10:47;;;;;;;7.90;5.13;;;;;;;9.27;47.39;93676.72;5053657;28;20045;-73
2024/02/24 06:13:13;;;;;;;8.77;4.78;;;;;;;9.52;46.90;93667.28;5036307;28;20033;-73
2024/02/24 06:15:38;;;;;;;6.50;4.45;;;;;;;9.82;46.36;93675.13;5053935;28;20051;-73
2024/02/24 06:18:05;;;;;;;6.65;3.80;;;;;;;9.45;46.82;93695.03;5053709;28;20107;-73
2024/02/24 06:20:30;;;;;;;7.55;4.05;;;;;;;9.54;46.56;93686.31;5054681;28;20028;-73
2024/02/24 06:22:55;;;;;;;6.47;4.38;;;;;;;9.73;47.02;93694.81;5035780;28;20041;-73
2024/02/24 06:25:21;;;;;;;9.57;5.78;;;;;;;9.57;46.93;93698.97;5053440;28;20037;-74
2024/02/24 06:27:46;;;;;;;11.32;7.28;;;;;;;9.10;48.43;93698.63;5053523;28;20071;-73
2024/02/24 06:30:12;;;;;;;10.20;5.63;;;;;;;9.68;47.29;93690.41;5053677;28;20494;-74
2024/02/24 06:32:39;;;;;;;9.93;5.43;;;;;;;9.09;48.24;93681.16;5036209;28;20024;-73
2024/02/24 06:35:04;;;;;;;12.32;6.03;;;;;;;9.17;48.39;93669.81;5053861;28;20040;-73
2024/02/24 06:37:30;;;;;;;13.63;6.00;;;;;;;9.73;47.86;93697.47;5053642;28;20460;-73
2024/02/24 06:39:55;;;;;;;9.98;5.70;;;;;;;9.58;47.52;93672.13;5053333;28;20548;-73
2024/02/24 06:42:21;;;;;;;7.85;4.65;;;;;;;8.94;48.92;93689.53;5053078;28;20029;-74
2024/02/24 06:44:46;;;;;;;8.95;5.55;;;;;;;7.92;51.67;93667.38;5053791;28;20017;-73
2024/02/24 06:47:11;;;;;;;11.57;5.53;;;;;;;7.87;51.78;93677.28;5053391;28;20498;-73
2024/02/24 06:49:37;;;;;;;10.75;6.05;;;;;;;8.33;50.71;93685.72;5053200;28;20054;-73
2024/02/24 06:52:03;;;;;;;8.13;5.28;;;;;;;8.24;50.57;93682.25;5053371;28;20175;-73
2024/02/24 06:54:29;;;;;;;7.95;4.57;;;;;;;8.52;50.57;93677.59;5053044;28;20517;-73
2024/02/24 06:56:54;;;;;;;11.73;5.10;;;;;;;9.09;49.55;93680.38;5053304;28;20028;-75
2024/02/24 06:59:19;;;;;;;7.55;5.38;;;;;;;9.12;49.46;93680.56;5053844;28;20033;-73
2024/02/24 07:01:45;;;;;;;6.80;5.18;;;;;;;9.68;48.07;93665.75;5052720;28;20056;-73
2024/02/24 07:04:10;;;;;;;10.07;4.55;;;;;;;9.92;47.86;93691.88;5052885;28;20563;-73
2024/02/24 07:06:35;;;;;;;6.85;4.60;;;;;;;10.17;47.05;93672.50;5052830;28;20037;-73
2024/02/24 07:09:01;;;;;;;6.82;4.32;;;;;;;10.52;46.01;93683.88;5052869;28;20055;-73
2024/02/24 07:11:26;;;;;;;9.07;3.83;;;;;;;10.80;44.72;93668.38;5053307;28;20049;-74
2024/02/24 07:13:52;;;;;;;9.70;3.90;;;;;;;10.01;45.65;93666.06;5033629;28;20029;-73
2024/02/24 07:16:18;;;;;;;10.32;3.92;;;;;;;9.77;46.70;93677.16;5052479;28;20469;-73
2024/02/24 07:18:43;;;;;;;7.00;4.65;;;;;;;9.85;46.86;93647.94;5052923;28;20033;-72
2024/02/24 07:21:08;;;;;;;7.28;4.15;;;;;;;10.12;46.55;93665.44;5052523;28;20474;-73
2024/02/24 07:23:34;;;;;;;13.18;6.35;;;;;;;9.94;46.82;93685.13;5053019;28;20375;-72
2024/02/24 07:26:00;;;;;;;11.05;5.30;;;;;;;9.79;47.18;93693.56;5052672;28;20036;-72
2024/02/24 07:28:26;;;;;;;12.00;6.38;;;;;;;10.36;46.43;93683.63;5052354;28;20029;-72
2024/02/24 07:30:52;;;;;;;11.98;5.78;;;;;;;10.59;45.93;93676.22;5052259;28;20032;-73
2024/02/24 07:33:17;;;;;;;10.52;5.30;;;;;;;9.86;46.73;93638.09;5052378;28;20155;-72
2024/02/24 07:35:42;;;;;;;10.07;5.95;;;;;;;10.33;46.80;93670.91;5052736;28;20078;-73
2024/02/24 07:38:08;;;;;;;11.70;5.53;;;;;;;10.72;46.37;93684.00;5052396;28;20405;-73
2024/02/24 07:40:34;;;;;;;16.77;9.55;;;;;;;10.93;45.35;93709.94;5052024;28;20075;-72
2024/02/24 07:43:00;;;;;;;12.48;6.90;;;;;;;11.29;44.96;93712.97;5052108;28;20033;-72
2024/02/24 07:45:26;;;;;;;8.90;6.10;;;;;;;10.87;45.61;93705.88;5052187;28;20502;-73
2024/02/24 07:47:53;;;;;;;8.25;5.18;;;;;;;11.05;44.34;93684.22;5052050;28;20082;-72
2024/02/24 07:50:18;;;;;;;16.00;6.30;;;;;;;11.43;44.52;93692.22;5052909;28;20033;-72
2024/02/24 07:52:44;;;;;;;8.27;4.82;;;;;;;11.66;43.10;93698.09;5051810;28;20056;-73
2024/02/24 07:55:09;;;;;;;7.75;5.15;;;;;;;11.21;44.16;93705.00;5052144;28;20037;-73
2024/02/24 07:57:34;;;;;;;6.97;5.05;;;;;;;10.63;45.17;93712.50;5051802;28;20037;-72
2024/02/24 08:00:00;;;;;;;10.18;5.47;;;;;;;10.71;45.29;93724.22;5051787;28;20363;-72
2024/02/24 08:02:26;;;;;;;10.30;5.53;;;;;;;10.68;45.18;93687.63;5052399;28;20037;-72
2024/02/24 08:04:51;;;;;;;10.80;6.50;;;;;;;10.41;46.13;93725.22;5051853;28;20033;-71
2024/02/24 08:07:16;;;;;;;11.68;6.43;;;;;;;10.43;46.15;93699.06;5051689;28;20466;-73
2024/02/24 08:09:42;;;;;;;9.88;6.85;;;;;;;10.80;46.14;93722.34;5052027;28;20077;-73
2024/02/24 08:12:07;;;;;;;11.00;6.18;;;;;;;11.20;44.86;93716.78;5051596;28;20089;-73
2024/02/24 08:14:32;;;;;;;12.60;6.63;;;;;;;11.28;45.00;93691.97;5052176;28;20368;-73
2024/02/24 08:16:58;;;;;;;11.30;4.82;;;;;;;11.47;43.61;93689.69;5051493;28;20119;-73
2024/02/24 08:19:23;;;;;;;9.23;5.50;;;;;;;11.79;42.49;93731.72;5051300;28;20025;-73
2024/02/24 08:21:49;;;;;;;7.72;4.57;;;;;;;12.04;42.58;93746.78;5051517;28;20068;-73
2024/02/24 08:24:16;;;;;;;11.10;4.57;;;;;;;12.06;42.50;93701.13;5051099;28;20041;-73
2024/02/24 08:26:43;;;;;;;8.80;4.53;;;;;;;12.38;41.36;93742.28;5052197;28;20032;-73
2024/02/24 08:29:09;;;;;;;9.60;4.43;;;;;;;12.37;41.16;93735.44;5051304;28;20253;-73
2024/02/24 08:31:35;;;;;;;11.40;4.82;;;;;;;12.18;42.14;93705.75;5051235;28;20551;-74
2024/02/24 08:34:01;;;;;;;5.30;3.00;;;;;;;12.65;41.28;93720.47;5051359;28;20037;-74
2024/02/24 08:36:26;;;;;;;12.90;5.53;;;;;;;12.71;40.74;93697.78;5051286;28;20032;-73
2024/02/24 08:38:52;;;;;;;7.43;4.18;;;;;;;12.48;41.34;93688.56;5051083;28;20532;-72
2024/02/24 08:41:17;;;;;;;3.15;2.05;;;;;;;12.95;40.08;93704.34;5051396;28;20064;-73
2024/02/24 08:43:42;;;;;;;3.47;2.40;;;;;;;13.23;39.25;93714.06;5051166;28;20044;-74
2024/02/24 08:46:08;;;;;;;7.18;3.20;;;;;;;13.26;39.04;93697.38;5051266;28;20389;-73
2024/02/24 08:48:34;;;;;;;8.10;3.58;;;;;;;12.70;40.20;93722.16;5050796;28;20081;-73
2024/02/24 08:51:00;;;;;;;4.00;2.03;;;;;;;12.47;39.29;93719.00;5050966;28;20070;-73
2024/02/24 08:53:25;;;;;;;6.38;1.92;;;;;;;12.41;39.60;93715.00;5051719;28;20040;-73
2024/02/24 08:55:51;;;;;;;2.83;1.60;;;;;;;12.28;40.13;93727.47;5050827;28;20502;-73
2024/02/24 08:58:17;;;;;;;3.92;2.03;;;;;;;12.10;39.83;93706.59;5051273;28;20520;-74
2024/02/24 09:00:43;;;;;;;2.03;1.50;;;;;;;12.34;39.86;93706.72;5050825;28;20504;-74
2024/02/24 09:03:09;;;;;;;5.03;2.80;;;;;;;12.55;39.85;93706.72;5050654;28;20064;-74
2024/02/24 09:05:35;;;;;;;2.85;1.80;;;;;;;12.97;39.34;93715.44;5051478;28;20136;-73
2024/02/24 09:08:00;;;;;;;6.10;1.73;;;;;;;13.26;37.98;93728.63;5050431;28;20064;-74
2024/02/24 09:10:25;;;;;;;2.72;1.55;;;;;;;13.29;38.42;93719.97;5050798;28;20152;-73
2024/02/24 09:12:51;;;;;;;3.72;2.03;;;;;;;13.39;38.31;93743.59;5050680;28;20494;-74
2024/02/24 09:15:16;;;;;;;2.42;1.40;;;;;;;13.04;38.60;93729.03;5050914;28;20049;-74
2024/02/24 09:17:42;;;;;;;4.07;1.50;;;;;;;13.03;39.26;93704.22;5051286;28;20029;-74
2024/02/24 09:20:11;;;;;;;2.08;1.70;;;;;;;12.89;38.57;93672.50;5050637;28;20116;-74
2024/02/24 09:22:36;;;;;;;1.75;1.45;;;;;;;13.42;38.69;93716.19;5050632;28;20044;-73
2024/02/24 09:25:05;;;;;;;3.72;1.25;;;;;;;13.49;37.83;93694.28;5050880;28;20029;-74
2024/02/24 09:27:31;;;;;;;6.75;1.55;;;;;;;13.64;38.79;93704.34;5050414;28;20060;-74
2024/02/24 09:29:57;;;;;;;2.72;1.52;;;;;;;13.73;37.21;93700.44;5050774;28;20021;-74
2024/02/24 09:32:22;;;;;;;2.03;1.70;;;;;;;13.61;37.53;93732.50;5050875;28;20501;-74
2024/02/24 09:34:47;;;;;;;2.95;1.20;;;;;;;13.41;37.74;93724.53;5049332;28;20071;-74
2024/02/24 09:37:13;;;;;;;3.38;1.55;;;;;;;13.12;38.45;93706.81;5052180;28;20041;-74
2024/02/24 09:39:41;;;;;;;3.95;1.33;;;;;;;13.22;37.96;93727.75;5054081;28;20131;-74
2024/02/24 09:42:09;;;;;;;1.75;1.17;;;;;;;13.00;39.04;93728.16;5054675;28;20099;-74
2024/02/24 09:44:35;;;;;;;4.35;1.25;;;;;;;13.24;38.04;93720.97;5054876;28;20510;-74
2024/02/24 09:47:02;;;;;;;2.42;1.42;;;;;;;13.22;38.82;93722.41;5054417;28;20061;-74
2024/02/24 09:49:30;;;;;;;3.95;1.45;;;;;;;12.45;38.99;93697.22;5054273;28;20033;-75
2024/02/24 09:51:55;;;;;;;3.00;1.30;;;;;;;12.66;39.68;93707.91;5054074;28;20028;-74
2024/02/24 09:54:20;;;;;;;1.85;1.45;;;;;;;12.97;39.25;93718.91;5054401;28;20490;-75
2024/02/24 09:56:51;;;;;;;2.00;1.50;;;;;;;12.92;39.52;93721.78;5054659;28;20051;-73
2024/02/24 09:59:17;;;;;;;1.92;1.20;;;;;;;12.65;39.29;93725.81;5054345;28;20080;-73
2024/02/24 10:01:50;;;;;;;1.92;1.63;;;;;;;12.91;39.14;93695.44;5054448;28;20029;-74
2024/02/24 10:04:15;;;;;;;1.27;1.10;;;;;;;12.68;39.30;93711.78;5054062;28;20075;-73
2024/02/24 10:06:41;;;;;;;3.05;1.58;;;;;;;12.63;39.44;93711.22;5054088;28;20033;-74
2024/02/24 10:09:07;;;;;;;1.48;1.20;;;;;;;12.80;39.06;93695.84;5054254;28;20025;-73
2024/02/24 10:11:35;;;;;;;5.13;1.90;;;;;;;12.60;39.02;93695.88;5054574;28;20386;-73
2024/02/24 10:14:01;;;;;;;3.17;1.77;;;;;;;12.58;39.34;93698.84;5053908;28;20036;-74
2024/02/24 10:16:26;;;;;;;3.75;1.63;;;;;;;12.63;39.52;93712.00;5053826;28;20048;-74
2024/02/24 10:18:52;;;;;;;1.73;1.25;;;;;;;12.77;38.90;93712.50;5053739;28;20115;-75
2024/02/24 10:21:17;;;;;;;3.30;1.50;;;;;;;12.76;39.03;93684.25;5053775;28;20033;-74
2024/02/24 10:23:42;;;;;;;2.63;1.50;;;;;;;13.03;38.70;93687.44;5054314;28;20178;-74
2024/02/24 10:26:08;;;;;;;1.70;1.40;;;;;;;12.97;38.92;93675.41;5053736;28;20025;-73
2024/02/24 10:28:35;;;;;;;1.80;1.13;;;;;;;13.46;39.23;93700.28;5053625;28;20029;-72
2024/02/24 10:31:01;;;;;;;3.40;1.40;;;;;;;13.22;38.28;93679.66;5053718;28;20040;-72
2024/02/24 10:33:29;;;;;;;1.40;1.10;;;;;;;13.64;38.88;93701.66;5053470;28;20406;-73
2024/02/24 10:35:55;;;;;;;2.30;1.50;;;;;;;13.82;37.92;93702.22;5053282;28;20571;-72
2024/02/24 10:38:21;;;;;;;5.18;1.58;;;;;;;13.88;37.13;93695.53;5054186;28;20071;-73
2024/02/24 10:40:47;;;;;;;1.40;1.25;;;;;;;13.81;38.09;93709.44;5052485;28;20045;-72
2024/02/24 10:43:14;;;;;;;2.17;1.35;;;;;;;13.89;38.53;93699.72;5053345;28;20106;-72
2024/02/24 10:45:40;;;;;;;1.73;1.27;;;;;;;13.56;37.72;93692.59;5053257;28;20033;-73
2024/02/24 10:48:06;;;;;;;2.53;1.83;;;;;;;13.60;38.23;93700.75;5035308;28;20082;-73
2024/02/24 10:50:33;;;;;;;1.88;1.25;;;;;;;14.09;37.46;93698.81;5054061;28;20021;-72
2024/02/24 10:53:01;;;;;;;3.40;1.38;;;;;;;13.94;36.87;93668.22;5053197;28;20025;-72
2024/02/24 10:55:28;;;;;;;2.53;1.27;;;;;;;14.41;37.30;93710.47;5053024;28;20060;-72
2024/02/24 10:57:55;;;;;;;5.88;1.70;;;;;;;14.18;37.07;93696.78;5053218;28;20033;-73
2024/02/24 11:00:25;;;;;;;1.30;1.20;;;;;;;14.02;36.04;93679.91;5053183;28;20082;-72
2024/02/24 11:02:51;;;;;;;1.55;1.17;;;;;;;13.92;37.23;93689.16;5052987;28;20052;-70
2024/02/24 11:05:17;;;;;;;3.25;1.30;;;;;;;13.60;37.74;93688.19;5053470;28;20162;-72
2024/02/24 11:07:43;;;;;;;1.83;1.55;;;;;;;13.41;37.78;93671.91;5052819;28;20048;-72
2024/02/24 11:10:19;;;;;;;2.50;1.50;;;;;;;13.03;38.73;93668.75;5052962;28;20489;-72
2024/02/24 11:12:44;;;;;;;2.13;1.60;;;;;;;12.89;39.54;93680.50;5052668;28;20037;-72
2024/02/24 11:15:23;;;;;;;1.90;1.50;;;;;;;12.74;40.01;93683.81;5052763;28;20045;-72
2024/02/24 11:17:52;;;;;;;5.28;1.70;;;;;;;12.84;39.39;93686.06;5052900;28;20025;-72
2024/02/24 11:20:47;;;;;;;2.30;1.90;;;;;;;13.02;39.32;93691.19;5052957;28;20613;-72
2024/02/24 11:23:21;;;;;;;3.42;1.50;;;;;;;13.31;39.09;93683.78;5022884;28;20045;-72
2024/02/24 11:25:48;;;;;;;1.90;1.70;;;;;;;13.17;38.82;93678.00;5052445;28;20044;-72
2024/02/24 11:28:24;;;;;;;2.47;1.73;;;;;;;12.72;39.40;93691.34;5052300;28;20037;-72
2024/02/24 11:30:53;;;;;;;5.53;1.77;;;;;;;13.01;38.87;93689.63;5052314;28;20040;-72